createdAt,value
2023-05-13T00:04:15.238Z,90.62
2023-05-13T00:09:19.031Z,91.00
2023-05-13T00:11:47.413Z,91.38
2023-05-13T00:14:17.089Z,91.34
2023-05-13T00:19:27.350Z,92.02
2023-05-13T00:21:55.715Z,91.92
2023-05-13T00:24:23.939Z,93.01
2023-05-13T00:26:52.784Z,94.44
2023-05-13T00:29:21.254Z,94.98
2023-05-13T00:31:49.634Z,95.33
2023-05-13T00:36:59.152Z,95.55
2023-05-13T00:39:27.339Z,95.65
2023-05-13T00:49:55.226Z,97.93
2023-05-13T00:52:23.142Z,97.11
2023-05-13T01:05:32.500Z,98.70
2023-05-13T01:08:09.301Z,98.68
2023-05-13T01:10:44.799Z,98.44
2023-05-13T01:13:14.097Z,97.69
2023-05-13T01:15:45.572Z,96.75
2023-05-13T01:18:25.102Z,97.19
2023-05-13T01:20:53.598Z,97.75
2023-05-13T01:23:22.694Z,97.68
2023-05-13T01:25:50.673Z,97.94
2023-05-13T01:28:18.540Z,97.61
2023-05-13T01:30:46.260Z,97.21
2023-05-13T01:33:13.725Z,97.72
2023-05-13T01:35:41.672Z,97.95
2023-05-13T01:38:09.533Z,97.64
2023-05-13T01:40:38.002Z,97.80
2023-05-13T01:43:05.903Z,98.18
2023-05-13T01:45:33.915Z,98.32
2023-05-13T01:48:01.838Z,97.46
2023-05-13T01:50:29.321Z,97.11
2023-05-13T01:52:57.402Z,97.56
2023-05-13T01:55:25.315Z,97.60
2023-05-13T01:57:52.741Z,97.82
2023-05-13T02:00:21.038Z,98.00
2023-05-13T02:02:48.812Z,97.77
2023-05-13T02:05:19.888Z,97.63
2023-05-13T02:07:48.245Z,98.68
2023-05-13T02:10:16.270Z,99.27
2023-05-13T02:12:45.135Z,99.55
2023-05-13T02:15:12.640Z,100.00
2023-05-13T02:17:40.482Z,99.66
2023-05-13T02:20:11.204Z,99.14
2023-05-13T02:22:38.958Z,99.42
2023-05-13T02:25:08.695Z,100.00
2023-05-13T02:27:36.644Z,100.00
2023-05-13T02:30:05.181Z,100.00
2023-05-13T02:32:33.449Z,100.00
2023-05-13T02:35:01.024Z,100.00
2023-05-13T02:37:28.952Z,98.69
2023-05-13T02:39:57.022Z,98.83
2023-05-13T02:42:24.870Z,99.69
2023-05-13T02:44:52.837Z,100.00
2023-05-13T02:47:20.593Z,100.00
2023-05-13T02:49:48.832Z,100.00
2023-05-13T02:52:16.796Z,100.00
2023-05-13T02:54:44.752Z,100.00
2023-05-13T02:57:12.665Z,100.00
2023-05-13T02:59:40.253Z,100.00
2023-05-13T03:02:08.640Z,100.00
2023-05-13T03:04:36.604Z,100.00
2023-05-13T03:07:04.736Z,100.00
2023-05-13T03:09:35.296Z,100.00
2023-05-13T03:12:02.086Z,100.00
2023-05-13T03:14:30.101Z,100.00
2023-05-13T03:16:57.678Z,100.00
2023-05-13T03:19:26.002Z,100.00
2023-05-13T03:21:53.891Z,100.00
2023-05-13T03:24:21.370Z,100.00
2023-05-13T03:26:49.206Z,100.00
2023-05-13T03:29:17.169Z,100.00
2023-05-13T03:31:45.007Z,100.00
2023-05-13T03:34:12.957Z,100.00
2023-05-13T03:36:40.581Z,100.00
2023-05-13T03:39:08.681Z,100.00
2023-05-13T03:41:36.576Z,100.00
2023-05-13T03:44:04.337Z,100.00
2023-05-13T03:46:32.309Z,100.00
2023-05-13T03:49:00.234Z,100.00
2023-05-13T03:51:28.305Z,100.00
2023-05-13T03:53:56.475Z,100.00
2023-05-13T03:56:24.319Z,100.00
2023-05-13T03:58:52.060Z,100.00
2023-05-13T04:01:19.544Z,100.00
2023-05-13T04:03:47.525Z,100.00
2023-05-13T04:06:15.479Z,100.00
2023-05-13T04:08:43.861Z,100.00
2023-05-13T04:11:11.785Z,100.00
2023-05-13T04:13:39.262Z,100.00
2023-05-13T04:16:06.999Z,100.00
2023-05-13T04:18:34.786Z,100.00
2023-05-13T04:21:09.240Z,100.00
2023-05-13T04:23:37.088Z,100.00
2023-05-13T04:26:04.999Z,100.00
2023-05-13T04:28:33.351Z,100.00
2023-05-13T04:31:02.680Z,100.00
2023-05-13T04:33:30.602Z,100.00
2023-05-13T04:35:58.641Z,100.00
2023-05-13T04:38:26.630Z,100.00
2023-05-13T04:40:54.450Z,100.00
2023-05-13T04:43:22.579Z,100.00
2023-05-13T04:45:50.063Z,100.00
2023-05-13T04:48:17.870Z,100.00
2023-05-13T04:50:48.310Z,100.00
2023-05-13T04:53:16.386Z,100.00
2023-05-13T04:55:44.178Z,100.00
2023-05-13T04:58:11.621Z,100.00
2023-05-13T05:00:39.475Z,100.00
2023-05-13T05:03:07.325Z,100.00
2023-05-13T05:05:34.958Z,100.00
2023-05-13T05:10:39.034Z,100.00
2023-05-13T05:13:07.492Z,100.00
2023-05-13T05:15:35.381Z,100.00
2023-05-13T05:18:03.047Z,100.00
2023-05-13T05:20:30.966Z,100.00
2023-05-13T05:22:58.427Z,100.00
2023-05-13T05:25:27.233Z,100.00
2023-05-13T05:27:54.908Z,100.00
2023-05-13T05:30:22.684Z,100.00
2023-05-13T05:32:50.950Z,99.77
2023-05-13T05:35:19.883Z,99.45
2023-05-13T05:37:47.933Z,98.01
2023-05-13T05:40:15.551Z,97.24
2023-05-13T05:42:43.321Z,96.72
2023-05-13T05:45:12.628Z,96.55
2023-05-13T05:47:40.906Z,96.62
2023-05-13T05:50:10.438Z,96.59
2023-05-13T05:52:38.350Z,96.17
2023-05-13T05:55:08.092Z,95.53
2023-05-13T05:57:35.641Z,95.40
2023-05-13T06:00:04.985Z,94.72
2023-05-13T06:02:32.996Z,93.63
2023-05-13T06:05:00.698Z,93.44
2023-05-13T06:07:28.797Z,93.28
2023-05-13T06:10:08.264Z,93.27
2023-05-13T06:12:37.024Z,92.60
2023-05-13T06:15:06.937Z,91.95
2023-05-13T06:17:35.089Z,91.51
2023-05-13T06:20:02.603Z,90.94
2023-05-13T06:22:30.785Z,90.64
2023-05-13T06:24:59.033Z,89.89
2023-05-13T06:27:26.904Z,89.55
2023-05-13T06:29:54.764Z,89.51
2023-05-13T06:32:22.657Z,89.04
2023-05-13T06:34:53.532Z,88.39
2023-05-13T06:37:23.115Z,88.79
2023-05-13T06:39:51.320Z,88.26
2023-05-13T06:42:18.814Z,88.36
2023-05-13T06:44:46.717Z,88.61
2023-05-13T06:47:16.225Z,88.49
2023-05-13T06:49:43.497Z,88.02
2023-05-13T06:52:10.593Z,87.55
2023-05-13T06:54:38.100Z,87.19
2023-05-13T06:57:07.464Z,87.18
2023-05-13T06:59:36.559Z,86.73
2023-05-13T07:02:04.693Z,87.00
2023-05-13T07:04:33.143Z,87.73
2023-05-13T07:07:00.538Z,87.95
2023-05-13T07:09:28.592Z,87.33
2023-05-13T07:11:55.780Z,87.18
2023-05-13T07:14:25.132Z,86.21
2023-05-13T07:16:53.286Z,86.46
2023-05-13T07:19:21.241Z,85.76
2023-05-13T07:21:49.534Z,85.24
2023-05-13T07:24:16.982Z,84.25
2023-05-13T07:26:45.222Z,83.63
2023-05-13T07:29:13.150Z,83.36
2023-05-13T07:31:41.470Z,83.33
2023-05-13T07:34:09.407Z,82.61
2023-05-13T07:36:37.451Z,82.09
2023-05-13T07:39:05.081Z,80.89
2023-05-13T07:41:32.662Z,79.95
2023-05-13T07:44:00.604Z,79.26
2023-05-13T07:46:28.481Z,79.68
2023-05-13T07:48:56.040Z,79.52
2023-05-13T07:51:24.073Z,76.87
2023-05-13T07:53:52.034Z,75.34
2023-05-13T07:56:19.917Z,73.92
2023-05-13T07:58:47.437Z,73.56
2023-05-13T08:01:14.892Z,72.17
2023-05-13T08:03:42.687Z,72.05
2023-05-13T08:06:10.633Z,72.33
2023-05-13T08:08:38.284Z,71.55
2023-05-13T08:11:05.997Z,71.03
2023-05-13T08:13:33.918Z,69.73
2023-05-13T08:16:11.466Z,70.24
2023-05-13T08:18:39.980Z,70.85
2023-05-13T08:21:19.795Z,69.96
2023-05-13T08:23:48.293Z,69.58
2023-05-13T08:26:16.596Z,67.93
2023-05-13T08:28:44.373Z,67.13
2023-05-13T08:31:13.154Z,66.75
2023-05-13T08:33:46.106Z,67.01
2023-05-13T08:36:14.147Z,67.62
2023-05-13T08:38:43.445Z,67.18
2023-05-13T08:41:14.437Z,67.50
2023-05-13T08:43:45.331Z,65.72
2023-05-13T08:46:13.142Z,65.95
2023-05-13T08:48:41.003Z,64.94
2023-05-13T08:51:09.398Z,64.27
2023-05-13T08:53:37.852Z,63.58
2023-05-13T08:56:07.507Z,63.66
2023-05-13T08:58:35.151Z,63.54
2023-05-13T09:01:04.499Z,63.19
2023-05-13T09:03:31.526Z,61.47
2023-05-13T09:06:01.533Z,58.11
2023-05-13T09:08:29.277Z,57.73
2023-05-13T09:10:57.298Z,58.43
2023-05-13T09:13:25.169Z,59.75
2023-05-13T09:15:53.140Z,58.96
2023-05-13T09:18:20.690Z,55.74
2023-05-13T09:20:48.310Z,55.67
2023-05-13T09:23:16.144Z,56.14
2023-05-13T09:25:44.291Z,55.53
2023-05-13T09:28:11.401Z,55.37
2023-05-13T09:30:40.598Z,56.44
2023-05-13T09:33:08.247Z,56.27
2023-05-13T09:35:40.278Z,57.56
2023-05-13T09:38:20.512Z,57.92
2023-05-13T09:40:58.173Z,58.75
2023-05-13T09:43:28.366Z,59.82
2023-05-13T09:45:56.719Z,59.27
2023-05-13T09:48:25.904Z,55.12
2023-05-13T09:50:53.928Z,55.65
2023-05-13T09:53:21.792Z,56.58
2023-05-13T09:55:49.809Z,58.71
2023-05-13T09:58:17.628Z,58.97
2023-05-13T10:00:45.888Z,56.63
2023-05-13T10:03:14.342Z,55.21
2023-05-13T10:05:42.233Z,56.38
2023-05-13T10:08:13.504Z,57.34
2023-05-13T10:10:41.586Z,53.88
2023-05-13T10:13:14.270Z,55.42
2023-05-13T10:16:11.491Z,53.50
2023-05-13T10:18:38.967Z,54.29
2023-05-13T10:21:06.979Z,53.48
2023-05-13T10:23:34.167Z,54.87
2023-05-13T10:26:01.818Z,54.79
2023-05-13T10:28:29.818Z,55.65
2023-05-13T10:30:58.166Z,56.25
2023-05-13T10:33:25.246Z,54.88
2023-05-13T10:36:04.162Z,52.18
2023-05-13T10:38:37.141Z,53.44
2023-05-13T10:41:10.835Z,52.99
2023-05-13T10:43:38.853Z,52.57
2023-05-13T10:46:08.006Z,52.11
2023-05-13T10:48:43.428Z,53.36
2023-05-13T10:51:14.558Z,53.07
2023-05-13T10:53:49.525Z,54.80
2023-05-13T10:56:17.396Z,54.28
2023-05-13T10:58:45.042Z,54.16
2023-05-13T11:01:13.544Z,52.14
2023-05-13T11:03:40.678Z,53.70
2023-05-13T11:06:13.862Z,50.71
2023-05-13T11:08:42.892Z,51.55
2023-05-13T11:11:22.653Z,50.04
2023-05-13T11:14:11.649Z,50.37
2023-05-13T11:16:39.677Z,50.33
2023-05-13T11:19:10.275Z,50.90
2023-05-13T11:21:57.453Z,51.09
2023-05-13T11:24:25.563Z,49.47
2023-05-13T11:26:56.420Z,48.98
2023-05-13T11:29:30.301Z,49.74
2023-05-13T11:32:00.258Z,48.83
2023-05-13T11:34:28.364Z,48.38
2023-05-13T11:37:04.812Z,49.67
2023-05-13T11:39:32.755Z,50.10
2023-05-13T11:42:04.234Z,46.71
2023-05-13T11:44:31.776Z,46.50
2023-05-13T11:47:01.017Z,46.32
2023-05-13T11:49:44.154Z,45.57
2023-05-13T11:52:10.955Z,43.19
2023-05-13T11:54:55.214Z,41.29
2023-05-13T11:57:24.888Z,39.59
2023-05-13T12:00:02.111Z,39.05
2023-05-13T12:02:31.436Z,38.08
2023-05-13T12:05:05.155Z,38.99
2023-05-13T12:07:32.805Z,39.31
2023-05-13T12:10:06.300Z,38.40
2023-05-13T12:12:34.739Z,37.48
2023-05-13T12:15:11.064Z,35.78
2023-05-13T12:17:38.553Z,35.67
2023-05-13T12:20:13.025Z,37.52
2023-05-13T12:22:43.201Z,37.84
2023-05-13T12:25:37.745Z,37.10
2023-05-13T12:28:32.458Z,38.07
2023-05-13T12:31:04.431Z,39.81
2023-05-13T12:33:34.324Z,38.34
2023-05-13T12:36:26.200Z,36.97
2023-05-13T12:38:59.592Z,35.39
2023-05-13T12:41:29.260Z,34.45
2023-05-13T12:43:59.011Z,33.37
2023-05-13T12:46:26.261Z,33.42
2023-05-13T12:49:16.582Z,34.65
2023-05-13T12:51:44.860Z,34.29
2023-05-13T12:54:12.823Z,34.12
2023-05-13T12:56:40.715Z,35.84
2023-05-13T12:59:08.886Z,36.23
2023-05-13T13:01:37.244Z,34.97
2023-05-13T13:04:05.430Z,33.52
2023-05-13T13:09:35.908Z,30.06
2023-05-13T13:12:04.026Z,28.64
2023-05-13T13:14:31.886Z,29.32
2023-05-13T13:16:59.771Z,28.78
2023-05-13T13:19:27.829Z,28.10
2023-05-13T13:21:55.383Z,27.69
2023-05-13T13:24:23.190Z,29.00
2023-05-13T13:26:50.850Z,29.05
2023-05-13T13:29:18.422Z,29.75
2023-05-13T13:31:46.941Z,28.87
2023-05-13T13:34:14.791Z,27.62
2023-05-13T13:36:42.333Z,27.29
2023-05-13T13:39:09.879Z,27.26
2023-05-13T13:41:38.327Z,25.44
2023-05-13T13:44:06.469Z,26.54
2023-05-13T13:46:34.583Z,26.42
2023-05-13T13:49:07.733Z,28.41
2023-05-13T13:51:44.528Z,30.81
2023-05-13T13:54:12.484Z,33.02
2023-05-13T13:56:40.003Z,34.13
2023-05-13T13:59:07.976Z,35.93
2023-05-13T14:01:35.913Z,37.53
2023-05-13T14:04:14.735Z,38.39
2023-05-13T14:06:42.496Z,37.85
2023-05-13T14:09:10.944Z,36.46
2023-05-13T14:11:38.051Z,34.79
2023-05-13T14:14:05.570Z,33.32
2023-05-13T14:16:33.006Z,32.17
2023-05-13T14:19:00.519Z,31.80
2023-05-13T14:21:28.506Z,31.21
2023-05-13T14:23:55.935Z,31.96
2023-05-13T14:26:23.823Z,34.01
2023-05-13T14:28:51.274Z,35.85
2023-05-13T14:31:19.128Z,38.57
2023-05-13T14:33:46.709Z,38.21
2023-05-13T14:36:16.325Z,40.37
2023-05-13T14:39:03.373Z,42.80
2023-05-13T14:41:31.214Z,44.77
2023-05-13T14:43:59.459Z,47.11
2023-05-13T14:46:27.789Z,49.58
2023-05-13T14:48:55.807Z,50.49
2023-05-13T14:51:23.901Z,52.60
2023-05-13T14:53:51.815Z,54.33
2023-05-13T14:56:19.664Z,55.72
2023-05-13T14:58:47.959Z,55.47
2023-05-13T15:01:15.729Z,56.02
2023-05-13T15:03:43.849Z,57.11
2023-05-13T15:06:11.816Z,57.94
2023-05-13T15:08:39.782Z,58.61
2023-05-13T15:11:08.402Z,59.53
2023-05-13T15:13:36.894Z,60.58
2023-05-13T15:16:05.134Z,62.42
2023-05-13T15:18:33.220Z,64.20
2023-05-13T15:21:00.701Z,67.25
2023-05-13T15:23:28.623Z,73.67
2023-05-13T15:25:56.652Z,76.69
2023-05-13T15:28:25.092Z,78.45
2023-05-13T15:30:54.145Z,81.04
2023-05-13T15:33:38.557Z,79.42
2023-05-13T15:36:19.625Z,81.30
2023-05-13T15:38:47.214Z,80.95
2023-05-13T15:41:14.675Z,81.52
2023-05-13T15:43:42.453Z,83.25
2023-05-13T15:46:10.436Z,81.34
2023-05-13T15:48:38.298Z,81.58
2023-05-13T15:51:07.221Z,79.72
2023-05-13T15:53:51.384Z,78.54
2023-05-13T15:56:21.872Z,80.30
2023-05-13T15:58:50.455Z,80.75
2023-05-13T16:01:18.084Z,82.21
2023-05-13T16:03:47.620Z,81.77
2023-05-13T16:06:15.237Z,81.61
2023-05-13T16:08:43.310Z,81.34
2023-05-13T16:11:13.030Z,81.11
2023-05-13T16:13:40.931Z,80.91
2023-05-13T16:16:14.673Z,80.19
2023-05-13T16:18:43.255Z,80.03
2023-05-13T16:21:11.246Z,79.61
2023-05-13T16:23:39.127Z,79.60
2023-05-13T16:26:08.608Z,79.37
2023-05-13T16:28:45.415Z,79.05
2023-05-13T16:31:15.951Z,78.38
2023-05-13T16:33:44.711Z,78.18
2023-05-13T16:36:24.452Z,77.84
2023-05-13T16:38:52.002Z,76.46
2023-05-13T16:41:20.012Z,76.44
2023-05-13T16:43:47.576Z,76.41
2023-05-13T16:46:17.485Z,77.20
2023-05-13T16:48:45.599Z,78.09
2023-05-13T16:51:16.409Z,78.03
2023-05-13T16:53:44.417Z,78.50
2023-05-13T16:56:12.344Z,77.28
2023-05-13T16:58:40.278Z,77.70
2023-05-13T17:01:09.214Z,77.34
2023-05-13T17:03:41.196Z,77.08
2023-05-13T17:06:33.666Z,77.29
2023-05-13T17:09:01.957Z,76.56
2023-05-13T17:11:29.805Z,76.36
2023-05-13T17:13:57.344Z,75.99
2023-05-13T17:16:24.828Z,76.09
2023-05-13T17:18:53.515Z,75.44
2023-05-13T17:21:21.851Z,75.01
2023-05-13T17:23:49.510Z,74.78
2023-05-13T17:26:23.327Z,74.88
2023-05-13T17:28:51.884Z,75.23
2023-05-13T17:31:25.898Z,74.68
2023-05-13T17:33:53.908Z,75.20
2023-05-13T17:36:22.244Z,75.76
2023-05-13T17:38:50.339Z,75.69
2023-05-13T17:41:17.951Z,76.00
2023-05-13T17:43:47.392Z,75.22
2023-05-13T17:46:15.662Z,75.71
2023-05-13T17:48:43.434Z,74.91
2023-05-13T17:51:11.634Z,73.83
2023-05-13T17:53:39.136Z,75.27
2023-05-13T17:56:11.320Z,75.58
2023-05-13T17:58:38.965Z,75.72
2023-05-13T18:01:06.481Z,75.45
2023-05-13T18:03:34.998Z,75.50
2023-05-13T18:06:02.508Z,75.36
2023-05-13T18:08:30.484Z,74.74
2023-05-13T18:10:58.360Z,74.92
2023-05-13T18:13:26.628Z,75.50
2023-05-13T18:15:54.230Z,75.51
2023-05-13T18:18:22.150Z,75.21
2023-05-13T18:20:49.632Z,74.92
2023-05-13T18:23:18.258Z,75.04
2023-05-13T18:25:54.945Z,75.59
2023-05-13T18:28:23.832Z,75.52
2023-05-13T18:30:51.281Z,75.82
2023-05-13T18:33:21.823Z,75.81
2023-05-13T18:35:48.688Z,76.08
2023-05-13T18:38:16.720Z,76.96
2023-05-13T18:40:44.320Z,76.88
2023-05-13T18:43:12.376Z,76.69
2023-05-13T18:45:40.349Z,77.10
2023-05-13T18:48:08.425Z,76.97
2023-05-13T18:50:36.389Z,76.48
2023-05-13T18:53:04.320Z,76.73
2023-05-13T18:55:31.883Z,76.90
2023-05-13T18:58:00.269Z,77.51
2023-05-13T19:00:28.112Z,77.87
2023-05-13T19:02:56.384Z,77.91
2023-05-13T19:05:24.612Z,77.04
2023-05-13T19:07:52.897Z,78.11
2023-05-13T19:10:21.548Z,77.93
2023-05-13T19:12:49.657Z,78.36
2023-05-13T19:15:21.002Z,77.91
2023-05-13T19:17:48.489Z,77.98
2023-05-13T19:20:17.504Z,78.13
2023-05-13T19:22:45.366Z,77.98
2023-05-13T19:25:13.273Z,77.78
2023-05-13T19:27:41.170Z,78.42
2023-05-13T19:30:11.593Z,78.39
2023-05-13T19:32:39.566Z,79.07
2023-05-13T19:35:09.805Z,78.96
2023-05-13T19:37:37.456Z,78.90
2023-05-13T19:40:05.873Z,78.81
2023-05-13T19:42:33.407Z,78.90
2023-05-13T19:45:00.990Z,79.29
2023-05-13T19:47:30.921Z,79.92
2023-05-13T19:49:58.747Z,80.39
2023-05-13T19:52:26.707Z,79.96
2023-05-13T19:54:55.046Z,80.39
2023-05-13T19:57:22.656Z,79.95
2023-05-13T19:59:50.574Z,80.72
2023-05-13T20:02:18.603Z,80.95
2023-05-13T20:04:46.649Z,81.33
2023-05-13T20:07:14.635Z,82.08
2023-05-13T20:09:42.657Z,82.04
2023-05-13T20:12:10.595Z,82.12
2023-05-13T20:14:46.158Z,82.07
2023-05-13T20:17:18.347Z,82.57
2023-05-13T20:19:47.486Z,82.38
2023-05-13T20:22:16.531Z,82.15
2023-05-13T20:24:44.222Z,82.20
2023-05-13T20:27:12.169Z,82.04
2023-05-13T20:29:42.640Z,81.89
2023-05-13T20:32:10.186Z,82.13
2023-05-13T20:34:38.262Z,81.86
2023-05-13T20:37:05.848Z,81.72
2023-05-13T20:39:33.862Z,81.83
2023-05-13T20:42:02.011Z,82.16
2023-05-13T20:44:29.901Z,82.48
2023-05-13T20:46:57.397Z,82.08
2023-05-13T20:49:25.438Z,82.03
2023-05-13T20:51:53.421Z,82.27
2023-05-13T20:54:21.361Z,82.13
2023-05-13T20:56:49.297Z,81.89
2023-05-13T20:59:16.713Z,82.05
2023-05-13T21:01:47.468Z,81.85
2023-05-13T21:04:15.351Z,82.44
2023-05-13T21:06:43.535Z,82.50
2023-05-13T21:09:11.061Z,82.47
2023-05-13T21:11:39.007Z,82.08
2023-05-13T21:14:07.013Z,82.21
2023-05-13T21:16:36.044Z,81.73
2023-05-13T21:19:03.650Z,81.65
2023-05-13T21:21:32.202Z,81.61
2023-05-13T21:26:40.950Z,81.12
2023-05-13T21:29:09.374Z,80.88
2023-05-13T21:31:37.444Z,80.88
2023-05-13T21:34:05.445Z,81.20
2023-05-13T21:36:33.911Z,81.16
2023-05-13T21:39:01.764Z,81.38
2023-05-13T21:41:29.565Z,81.61
2023-05-13T21:43:57.615Z,81.69
2023-05-13T21:46:25.894Z,81.65
2023-05-13T21:48:53.928Z,81.38
2023-05-13T21:51:21.078Z,82.39
2023-05-13T21:53:48.624Z,82.24
2023-05-13T21:56:18.790Z,82.26
2023-05-13T21:58:46.688Z,81.94
2023-05-13T22:01:14.263Z,82.11
2023-05-13T22:03:42.135Z,82.43
2023-05-13T22:06:10.156Z,82.50
2023-05-13T22:08:38.050Z,81.99
2023-05-13T22:11:05.594Z,81.80
2023-05-13T22:13:33.450Z,81.65
2023-05-13T22:16:01.357Z,81.08
2023-05-13T22:18:29.263Z,81.38
2023-05-13T22:20:58.808Z,82.66
2023-05-13T22:23:26.729Z,83.55
2023-05-13T22:25:55.027Z,84.61
2023-05-13T22:44:00.962Z,86.89
2023-05-13T22:50:54.138Z,86.85
2023-05-13T22:53:41.269Z,87.08
2023-05-13T22:56:13.384Z,87.27
2023-05-13T22:58:45.557Z,87.46
2023-05-13T23:01:14.015Z,88.04
2023-05-13T23:03:43.821Z,89.15
2023-05-13T23:12:51.683Z,89.34
2023-05-13T23:15:45.090Z,88.57
2023-05-13T23:39:42.369Z,86.32
2023-05-13T23:42:34.372Z,85.19
2023-05-13T23:45:08.423Z,85.79
2023-05-13T23:53:42.214Z,87.77
